createdAt,value
2023-03-01T00:01:20.111Z,1.62
2023-03-01T00:03:47.417Z,1.60
2023-03-01T00:06:14.321Z,1.54
2023-03-01T00:08:41.061Z,1.54
2023-03-01T00:11:15.192Z,1.49
2023-03-01T00:13:42.736Z,1.48
2023-03-01T00:16:14.097Z,1.44
2023-03-01T00:18:40.966Z,1.42
2023-03-01T00:21:07.839Z,1.36
2023-03-01T00:23:37.849Z,1.36
2023-03-01T00:26:08.618Z,1.35
2023-03-01T00:28:35.965Z,1.32
2023-03-01T00:31:23.527Z,1.31
2023-03-01T00:33:53.592Z,1.32
2023-03-01T00:36:20.836Z,1.30
2023-03-01T00:38:47.377Z,1.29
2023-03-01T00:41:16.287Z,1.28
2023-03-01T00:43:43.342Z,1.30
2023-03-01T00:46:13.129Z,1.25
2023-03-01T00:48:40.243Z,1.22
2023-03-01T00:51:08.226Z,1.22
2023-03-01T00:53:35.502Z,1.24
2023-03-01T00:56:02.786Z,1.22
2023-03-01T00:58:29.450Z,1.17
2023-03-01T01:00:55.956Z,1.15
2023-03-01T01:03:24.417Z,1.17
2023-03-01T01:05:50.993Z,1.16
2023-03-01T01:08:17.621Z,1.15
2023-03-01T01:10:45.732Z,1.14
2023-03-01T01:13:12.493Z,1.13
2023-03-01T01:15:39.436Z,1.12
2023-03-01T01:18:06.155Z,1.11
2023-03-01T01:20:33.125Z,1.11
2023-03-01T01:22:59.676Z,1.06
2023-03-01T01:25:27.521Z,1.04
2023-03-01T01:27:53.994Z,1.05
2023-03-01T01:30:20.512Z,1.06
2023-03-01T01:32:47.071Z,1.03
2023-03-01T01:35:13.516Z,1.05
2023-03-01T01:37:39.991Z,1.05
2023-03-01T01:40:07.298Z,1.03
2023-03-01T01:42:33.807Z,1.03
2023-03-01T01:45:25.044Z,1.03
2023-03-01T01:47:53.749Z,1.00
2023-03-01T01:50:20.533Z,1.00
2023-03-01T01:52:51.404Z,0.97
2023-03-01T01:55:24.692Z,0.97
2023-03-01T01:57:55.798Z,0.95
2023-03-01T02:00:25.338Z,0.95
2023-03-01T02:02:58.154Z,0.94
2023-03-01T02:05:44.433Z,0.92
2023-03-01T02:08:13.366Z,0.89
2023-03-01T02:10:41.378Z,0.87
2023-03-01T02:13:08.294Z,0.84
2023-03-01T02:15:36.680Z,0.82
2023-03-01T02:18:04.699Z,0.83
2023-03-01T02:20:39.989Z,0.82
2023-03-01T02:23:06.899Z,0.80
2023-03-01T02:25:39.296Z,0.77
2023-03-01T02:28:15.231Z,0.76
2023-03-01T02:31:03.413Z,0.74
2023-03-01T02:33:33.941Z,0.72
2023-03-01T02:36:05.064Z,0.67
2023-03-01T02:38:33.099Z,0.66
2023-03-01T02:41:02.470Z,0.63
2023-03-01T02:43:33.721Z,0.62
2023-03-01T02:46:06.791Z,0.63
2023-03-01T02:48:45.532Z,0.61
2023-03-01T02:51:33.652Z,0.60
2023-03-01T02:54:14.459Z,0.61
2023-03-01T02:56:42.229Z,0.57
2023-03-01T02:59:10.468Z,0.50
2023-03-01T03:01:39.848Z,0.50
2023-03-01T03:04:08.724Z,0.47
2023-03-01T03:06:35.871Z,0.45
2023-03-01T03:09:03.223Z,0.49
2023-03-01T03:11:29.918Z,0.45
2023-03-01T03:13:56.971Z,0.44
2023-03-01T03:16:23.648Z,0.43
2023-03-01T03:18:50.258Z,0.46
2023-03-01T03:21:17.341Z,0.45
2023-03-01T03:23:44.953Z,0.40
2023-03-01T03:26:16.013Z,0.35
2023-03-01T03:28:42.470Z,0.33
2023-03-01T03:31:09.349Z,0.33
2023-03-01T03:33:36.240Z,0.34
2023-03-01T03:36:02.846Z,0.36
2023-03-01T03:38:29.537Z,0.36
2023-03-01T03:41:05.194Z,0.35
2023-03-01T03:43:34.110Z,0.28
2023-03-01T03:46:00.944Z,0.28
2023-03-01T03:48:27.744Z,0.25
2023-03-01T03:50:56.662Z,0.22
2023-03-01T03:53:25.293Z,0.22
2023-03-01T03:55:52.695Z,0.22
2023-03-01T03:58:21.373Z,0.22
2023-03-01T04:00:50.263Z,0.21
2023-03-01T04:03:19.798Z,0.18
2023-03-01T04:05:47.125Z,0.14
2023-03-01T04:08:14.733Z,0.13
2023-03-01T04:10:45.522Z,0.14
2023-03-01T04:13:14.781Z,0.13
2023-03-01T04:15:41.609Z,0.10
2023-03-01T04:18:12.965Z,0.10
2023-03-01T04:20:39.917Z,0.12
2023-03-01T04:23:14.218Z,0.09
2023-03-01T04:25:58.525Z,0.10
2023-03-01T04:28:30.494Z,0.05
2023-03-01T04:30:58.690Z,0.02
2023-03-01T04:33:26.230Z,-0.03
2023-03-01T04:35:53.352Z,-0.04
2023-03-01T04:38:20.549Z,-0.07
2023-03-01T04:40:47.029Z,-0.06
2023-03-01T04:43:16.707Z,-0.11
2023-03-01T04:45:43.346Z,-0.08
2023-03-01T04:48:10.432Z,-0.11
2023-03-01T04:50:37.539Z,-0.11
2023-03-01T04:53:04.627Z,-0.14
2023-03-01T04:55:32.509Z,-0.14
2023-03-01T04:57:59.523Z,-0.18
2023-03-01T05:00:26.018Z,-0.16
2023-03-01T05:03:00.435Z,-0.19
2023-03-01T05:05:31.160Z,-0.19
2023-03-01T05:08:00.242Z,-0.20
2023-03-01T05:10:30.207Z,-0.24
2023-03-01T05:12:58.415Z,-0.25
2023-03-01T05:15:29.395Z,-0.30
2023-03-01T05:17:59.671Z,-0.28
2023-03-01T05:20:27.617Z,-0.26
2023-03-01T05:22:57.604Z,-0.28
2023-03-01T05:25:24.121Z,-0.27
2023-03-01T05:27:51.323Z,-0.35
2023-03-01T05:30:18.641Z,-0.28
2023-03-01T05:32:48.057Z,-0.22
2023-03-01T05:35:17.481Z,-0.18
2023-03-01T05:37:46.705Z,-0.14
2023-03-01T05:40:18.000Z,-0.15
2023-03-01T05:42:46.358Z,-0.11
2023-03-01T05:45:14.028Z,-0.11
2023-03-01T05:47:44.774Z,-0.09
2023-03-01T05:50:13.734Z,-0.05
2023-03-01T05:52:40.594Z,-0.04
2023-03-01T05:55:07.975Z,0.01
2023-03-01T05:57:34.484Z,0.03
2023-03-01T06:00:00.990Z,0.05
2023-03-01T06:02:28.660Z,0.08
2023-03-01T06:04:55.359Z,0.01
2023-03-01T06:07:22.083Z,-0.04
2023-03-01T06:09:48.652Z,0.00
2023-03-01T06:12:15.147Z,-0.05
2023-03-01T06:14:41.707Z,-0.04
2023-03-01T06:17:08.249Z,0.00
2023-03-01T06:19:34.725Z,-0.02
2023-03-01T06:22:01.354Z,-0.01
2023-03-01T06:24:29.802Z,-0.02
2023-03-01T06:26:56.911Z,-0.05
2023-03-01T06:29:23.694Z,0.00
2023-03-01T06:31:50.343Z,0.02
2023-03-01T06:34:16.946Z,0.01
2023-03-01T06:36:43.427Z,0.01
2023-03-01T06:39:10.102Z,0.01
2023-03-01T06:41:36.687Z,-0.05
2023-03-01T06:44:03.788Z,-0.03
2023-03-01T06:46:30.628Z,-0.10
2023-03-01T06:48:57.549Z,-0.10
2023-03-01T06:51:24.132Z,-0.13
2023-03-01T06:53:50.601Z,-0.12
2023-03-01T06:56:17.099Z,-0.07
2023-03-01T06:58:43.706Z,-0.05
2023-03-01T07:01:10.191Z,-0.01
2023-03-01T07:03:36.738Z,0.02
2023-03-01T07:06:03.465Z,0.02
2023-03-01T07:08:30.178Z,0.06
2023-03-01T07:10:58.582Z,0.09
2023-03-01T07:13:25.294Z,0.12
2023-03-01T07:15:51.864Z,0.13
2023-03-01T07:18:18.357Z,0.22
2023-03-01T07:20:44.861Z,0.30
2023-03-01T07:23:11.375Z,0.32
2023-03-01T07:25:37.944Z,0.38
2023-03-01T07:28:04.650Z,0.28
2023-03-01T07:30:31.551Z,0.19
2023-03-01T07:32:59.099Z,0.33
2023-03-01T07:35:29.080Z,0.38
2023-03-01T07:37:55.627Z,0.28
2023-03-01T07:40:23.416Z,0.33
2023-03-01T07:42:49.948Z,0.30
2023-03-01T07:45:16.622Z,0.32
2023-03-01T07:47:43.069Z,0.34
2023-03-01T07:50:10.585Z,0.48
2023-03-01T07:52:37.207Z,0.48
2023-03-01T07:55:03.854Z,0.57
2023-03-01T07:57:30.501Z,0.60
2023-03-01T07:59:57.017Z,0.69
2023-03-01T08:02:23.610Z,0.77
2023-03-01T08:04:50.198Z,0.68
2023-03-01T08:07:16.777Z,0.65
2023-03-01T08:09:43.466Z,0.71
2023-03-01T08:12:10.069Z,0.75
2023-03-01T08:14:36.656Z,0.90
2023-03-01T08:17:04.236Z,0.89
2023-03-01T08:19:31.395Z,0.93
2023-03-01T08:22:00.964Z,0.93
2023-03-01T08:24:27.671Z,1.11
2023-03-01T08:26:54.452Z,1.25
2023-03-01T08:29:21.229Z,1.26
2023-03-01T08:31:49.054Z,1.22
2023-03-01T08:34:18.890Z,1.27
2023-03-01T08:36:46.996Z,1.33
2023-03-01T08:39:16.493Z,1.47
2023-03-01T08:41:43.838Z,1.47
2023-03-01T08:44:12.525Z,1.62
2023-03-01T08:46:41.770Z,1.70
2023-03-01T08:49:12.465Z,1.83
2023-03-01T08:51:39.863Z,1.77
2023-03-01T08:54:19.125Z,1.87
2023-03-01T08:56:46.300Z,1.83
2023-03-01T08:59:14.227Z,1.94
2023-03-01T09:01:44.236Z,2.07
2023-03-01T09:04:29.027Z,2.15
2023-03-01T09:06:56.029Z,2.22
2023-03-01T09:09:22.742Z,2.19
2023-03-01T09:11:51.158Z,2.17
2023-03-01T09:14:18.074Z,2.15
2023-03-01T09:16:44.904Z,2.10
2023-03-01T09:19:12.320Z,2.17
2023-03-01T09:21:41.254Z,2.20
2023-03-01T09:24:17.310Z,2.29
2023-03-01T09:26:44.121Z,2.25
2023-03-01T09:29:11.028Z,2.25
2023-03-01T09:31:38.316Z,2.46
2023-03-01T09:34:05.400Z,2.51
2023-03-01T09:36:33.146Z,2.43
2023-03-01T09:39:01.052Z,2.42
2023-03-01T09:41:48.947Z,2.53
2023-03-01T09:44:35.562Z,2.55
2023-03-01T09:47:03.482Z,2.57
2023-03-01T09:49:36.933Z,2.65
2023-03-01T09:52:20.353Z,2.57
2023-03-01T09:54:49.127Z,2.67
2023-03-01T09:57:27.744Z,2.77
2023-03-01T10:00:31.347Z,2.87
2023-03-01T10:03:11.171Z,2.94
2023-03-01T10:05:43.499Z,2.94
2023-03-01T10:08:28.363Z,2.96
2023-03-01T10:10:55.085Z,2.92
2023-03-01T10:13:30.354Z,2.94
2023-03-01T10:16:13.394Z,2.99
2023-03-01T10:18:42.189Z,2.95
2023-03-01T10:21:17.749Z,2.97
2023-03-01T10:23:44.529Z,3.00
2023-03-01T10:26:33.325Z,3.08
2023-03-01T10:29:06.586Z,3.14
2023-03-01T10:31:38.938Z,3.20
2023-03-01T10:34:15.431Z,3.25
2023-03-01T10:36:43.789Z,3.31
2023-03-01T10:39:17.243Z,3.39
2023-03-01T10:41:58.202Z,3.43
2023-03-01T10:44:46.451Z,3.33
2023-03-01T10:47:18.352Z,3.41
2023-03-01T10:49:52.980Z,3.39
2023-03-01T10:52:22.622Z,3.49
2023-03-01T10:54:55.079Z,3.48
2023-03-01T10:57:42.456Z,3.49
2023-03-01T11:00:26.848Z,3.59
2023-03-01T11:02:59.607Z,3.66
2023-03-01T11:05:29.804Z,3.67
2023-03-01T11:08:01.829Z,3.70
2023-03-01T11:10:35.252Z,3.68
2023-03-01T11:13:16.512Z,3.75
2023-03-01T11:15:44.191Z,3.82
2023-03-01T11:18:25.078Z,3.89
2023-03-01T11:21:01.318Z,3.90
2023-03-01T11:23:30.741Z,3.95
2023-03-01T11:26:04.071Z,3.97
2023-03-01T11:28:35.095Z,3.98
2023-03-01T11:31:10.611Z,4.04
2023-03-01T11:34:21.216Z,4.04
2023-03-01T11:36:55.843Z,4.06
2023-03-01T11:40:01.231Z,4.14
2023-03-01T11:42:45.109Z,4.11
2023-03-01T11:45:13.445Z,4.14
2023-03-01T11:47:46.240Z,4.15
2023-03-01T11:50:12.867Z,4.15
2023-03-01T11:53:10.962Z,4.16
2023-03-01T11:56:06.747Z,4.18
2023-03-01T11:59:07.483Z,4.29
2023-03-01T12:01:48.313Z,4.27
2023-03-01T12:04:52.686Z,4.31
2023-03-01T12:07:44.586Z,4.26
2023-03-01T12:10:53.197Z,4.27
2023-03-01T12:13:29.002Z,4.30
2023-03-01T12:16:38.899Z,4.27
2023-03-01T12:19:09.660Z,4.37
2023-03-01T12:22:06.182Z,4.41
2023-03-01T12:24:32.740Z,4.50
2023-03-01T12:27:21.154Z,4.65
2023-03-01T12:29:52.025Z,4.60
2023-03-01T12:32:36.420Z,4.62
2023-03-01T12:35:35.262Z,4.65
2023-03-01T12:38:37.838Z,4.64
2023-03-01T12:41:38.782Z,4.63
2023-03-01T12:44:14.963Z,4.62
2023-03-01T12:47:11.962Z,4.65
2023-03-01T12:49:45.915Z,4.70
2023-03-01T12:52:19.308Z,4.75
2023-03-01T12:54:53.601Z,4.77
2023-03-01T12:57:38.040Z,4.81
2023-03-01T13:00:32.474Z,4.84
2023-03-01T13:03:39.529Z,4.91
2023-03-01T13:06:20.418Z,4.99
2023-03-01T13:08:55.019Z,4.96
2023-03-01T13:11:23.935Z,5.02
2023-03-01T13:13:52.686Z,5.07
2023-03-01T13:16:41.506Z,5.05
2023-03-01T13:19:25.698Z,5.02
2023-03-01T13:21:59.234Z,5.03
2023-03-01T13:24:25.754Z,5.02
2023-03-01T13:27:24.108Z,5.04
2023-03-01T13:30:06.857Z,5.04
2023-03-01T13:32:44.697Z,5.14
2023-03-01T13:35:20.922Z,5.15
2023-03-01T13:37:48.274Z,5.14
2023-03-01T13:40:20.444Z,5.17
2023-03-01T13:42:56.391Z,5.26
2023-03-01T13:45:40.546Z,5.23
2023-03-01T13:48:24.976Z,5.23
2023-03-01T13:51:00.164Z,5.25
2023-03-01T13:53:30.897Z,5.27
2023-03-01T13:56:20.876Z,5.24
2023-03-01T13:58:55.636Z,5.21
2023-03-01T14:01:34.234Z,5.23
2023-03-01T14:04:02.770Z,5.25
2023-03-01T14:06:36.666Z,5.27
2023-03-01T14:09:21.594Z,5.28
2023-03-01T14:12:06.266Z,5.24
2023-03-01T14:14:52.201Z,5.20
2023-03-01T14:17:33.587Z,5.21
2023-03-01T14:20:04.340Z,5.21
2023-03-01T14:25:17.867Z,5.27
2023-03-01T14:27:45.262Z,5.27
2023-03-01T14:30:25.018Z,5.25
2023-03-01T14:32:57.394Z,5.28
2023-03-01T14:35:33.602Z,5.33
2023-03-01T14:38:00.180Z,5.34
2023-03-01T14:40:38.277Z,5.31
2023-03-01T14:43:12.490Z,5.35
2023-03-01T14:45:39.166Z,5.33
2023-03-01T14:48:07.498Z,5.31
2023-03-01T14:50:36.250Z,5.34
2023-03-01T14:53:06.492Z,5.31
2023-03-01T14:55:38.024Z,5.29
2023-03-01T14:58:07.225Z,5.28
2023-03-01T15:00:35.944Z,5.29
2023-03-01T15:03:14.405Z,5.26
2023-03-01T15:05:43.876Z,5.26
2023-03-01T15:08:19.996Z,5.26
2023-03-01T15:11:03.737Z,5.27
2023-03-01T15:13:36.351Z,5.29
2023-03-01T15:16:07.901Z,5.34
2023-03-01T15:18:36.442Z,5.31
2023-03-01T15:21:31.757Z,5.27
2023-03-01T15:24:21.102Z,5.24
2023-03-01T15:27:08.000Z,5.23
2023-03-01T15:29:41.447Z,5.22
2023-03-01T15:32:33.193Z,5.22
2023-03-01T15:35:01.874Z,5.23
2023-03-01T15:37:48.792Z,5.27
2023-03-01T15:40:21.959Z,5.24
2023-03-01T15:42:49.364Z,5.24
2023-03-01T15:45:17.212Z,5.19
2023-03-01T15:48:05.331Z,5.16
2023-03-01T15:50:34.531Z,5.13
2023-03-01T15:53:05.223Z,5.17
2023-03-01T15:55:34.214Z,5.19
2023-03-01T15:58:08.068Z,5.23
2023-03-01T16:00:35.860Z,5.23
2023-03-01T16:03:02.502Z,5.22
2023-03-01T16:05:31.704Z,5.17
2023-03-01T16:07:58.483Z,5.16
2023-03-01T16:10:26.194Z,5.14
2023-03-01T16:12:53.837Z,5.09
2023-03-01T16:15:25.204Z,5.17
2023-03-01T16:17:53.131Z,5.13
2023-03-01T16:20:28.081Z,5.13
2023-03-01T16:22:55.405Z,5.09
2023-03-01T16:25:22.472Z,5.07
2023-03-01T16:27:51.321Z,5.06
2023-03-01T16:30:20.831Z,5.05
2023-03-01T16:32:49.094Z,5.08
2023-03-01T16:35:19.742Z,5.06
2023-03-01T16:37:46.574Z,5.10
2023-03-01T16:40:22.403Z,5.04
2023-03-01T16:42:49.975Z,5.01
2023-03-01T16:45:25.191Z,4.96
2023-03-01T16:47:55.470Z,4.95
2023-03-01T16:50:22.889Z,4.94
2023-03-01T16:52:49.553Z,4.93
2023-03-01T16:55:16.191Z,4.94
2023-03-01T16:57:42.748Z,4.90
2023-03-01T17:00:12.272Z,4.87
2023-03-01T17:02:38.894Z,4.83
2023-03-01T17:05:06.402Z,4.81
2023-03-01T17:07:36.988Z,4.75
2023-03-01T17:10:05.690Z,4.76
2023-03-01T17:12:33.093Z,4.72
2023-03-01T17:14:59.645Z,4.68
2023-03-01T17:17:26.542Z,4.68
2023-03-01T17:19:53.808Z,4.68
2023-03-01T17:22:20.409Z,4.63
2023-03-01T17:24:47.084Z,4.63
2023-03-01T17:27:13.779Z,4.55
2023-03-01T17:29:41.684Z,4.52
2023-03-01T17:32:09.980Z,4.51
2023-03-01T17:34:37.922Z,4.48
2023-03-01T17:37:04.519Z,4.44
2023-03-01T17:39:36.400Z,4.40
2023-03-01T17:42:05.278Z,4.34
2023-03-01T17:44:34.489Z,4.36
2023-03-01T17:47:02.795Z,4.38
2023-03-01T17:49:33.039Z,4.32
2023-03-01T17:52:00.672Z,4.27
2023-03-01T17:54:27.492Z,4.28
2023-03-01T17:56:56.210Z,4.26
2023-03-01T17:59:22.827Z,4.23
2023-03-01T18:01:49.295Z,4.21
2023-03-01T18:04:16.254Z,4.23
2023-03-01T18:06:42.823Z,4.18
2023-03-01T18:09:09.595Z,4.17
2023-03-01T18:11:37.208Z,4.14
2023-03-01T18:14:04.684Z,4.12
2023-03-01T18:16:32.613Z,4.11
2023-03-01T18:19:01.243Z,4.09
2023-03-01T18:21:29.788Z,4.09
2023-03-01T18:23:56.830Z,4.07
2023-03-01T18:26:27.726Z,4.04
2023-03-01T18:28:55.332Z,4.03
2023-03-01T18:31:22.814Z,4.05
2023-03-01T18:33:52.409Z,4.02
2023-03-01T18:36:23.154Z,3.98
2023-03-01T18:38:49.958Z,3.95
2023-03-01T18:41:16.846Z,3.97
2023-03-01T18:43:43.413Z,3.95
2023-03-01T18:46:10.268Z,3.93
2023-03-01T18:48:37.328Z,3.90
2023-03-01T18:51:14.366Z,3.94
2023-03-01T18:53:40.983Z,3.90
2023-03-01T18:56:08.852Z,3.90
2023-03-01T18:58:35.930Z,3.86
2023-03-01T19:01:04.986Z,3.85
2023-03-01T19:03:32.075Z,3.83
2023-03-01T19:06:02.118Z,3.83
2023-03-01T19:08:30.553Z,3.83
2023-03-01T19:11:03.207Z,3.79
2023-03-01T19:13:31.618Z,3.77
2023-03-01T19:16:13.968Z,3.73
2023-03-01T19:18:43.169Z,3.75
2023-03-01T19:21:12.049Z,3.74
2023-03-01T19:23:39.297Z,3.71
2023-03-01T19:26:08.674Z,3.70
2023-03-01T19:28:39.115Z,3.67
2023-03-01T19:31:09.158Z,3.65
2023-03-01T19:33:37.534Z,3.66
2023-03-01T19:36:04.783Z,3.64
2023-03-01T19:38:31.705Z,3.64
2023-03-01T19:40:58.419Z,3.61
2023-03-01T19:43:25.422Z,3.65
2023-03-01T19:45:53.315Z,3.62
2023-03-01T19:48:20.534Z,3.64
2023-03-01T19:50:47.563Z,3.62
2023-03-01T19:53:15.797Z,3.61
2023-03-01T19:55:42.779Z,3.57
2023-03-01T19:58:13.160Z,3.56
2023-03-01T20:00:45.014Z,3.53
2023-03-01T20:03:11.644Z,3.52
2023-03-01T20:05:39.353Z,3.53
2023-03-01T20:08:06.559Z,3.52
2023-03-01T20:10:34.065Z,3.52
2023-03-01T20:13:03.998Z,3.50
2023-03-01T20:15:31.058Z,3.48
2023-03-01T20:17:57.536Z,3.51
2023-03-01T20:20:27.158Z,3.49
2023-03-01T20:22:53.697Z,3.49
2023-03-01T20:25:20.289Z,3.48
2023-03-01T20:27:47.643Z,3.47
2023-03-01T20:30:15.823Z,3.45
2023-03-01T20:32:42.418Z,3.44
2023-03-01T20:35:09.699Z,3.42
2023-03-01T20:37:37.002Z,3.40
2023-03-01T20:40:04.288Z,3.39
2023-03-01T20:42:30.810Z,3.37
2023-03-01T20:44:57.439Z,3.34
2023-03-01T20:47:24.033Z,3.33
2023-03-01T20:49:51.935Z,3.34
2023-03-01T20:52:18.740Z,3.30
2023-03-01T20:54:45.256Z,3.31
2023-03-01T20:57:12.095Z,3.31
2023-03-01T20:59:38.723Z,3.28
2023-03-01T21:02:05.334Z,3.29
2023-03-01T21:04:31.835Z,3.27
2023-03-01T21:06:58.352Z,3.24
2023-03-01T21:09:24.938Z,3.24
2023-03-01T21:11:51.453Z,3.23
2023-03-01T21:14:18.050Z,3.22
2023-03-01T21:16:45.966Z,3.23
2023-03-01T21:19:12.773Z,3.20
2023-03-01T21:21:39.430Z,3.21
2023-03-01T21:24:06.751Z,3.17
2023-03-01T21:26:33.745Z,3.20
2023-03-01T21:29:01.757Z,3.20
2023-03-01T21:31:35.003Z,3.12
2023-03-01T21:34:04.923Z,3.09
2023-03-01T21:36:32.772Z,3.10
2023-03-01T21:39:01.922Z,3.09
2023-03-01T21:41:31.657Z,3.07
2023-03-01T21:44:00.939Z,3.08
2023-03-01T21:46:31.132Z,3.06
2023-03-01T21:48:58.190Z,3.08
2023-03-01T21:51:27.081Z,3.09
2023-03-01T21:53:55.844Z,3.05
2023-03-01T21:56:25.601Z,3.03
2023-03-01T21:58:52.980Z,2.99
2023-03-01T22:01:24.694Z,3.02
2023-03-01T22:03:51.669Z,3.01
2023-03-01T22:06:22.808Z,2.98
2023-03-01T22:08:52.495Z,2.97
2023-03-01T22:11:20.463Z,2.98
2023-03-01T22:13:49.525Z,2.96
2023-03-01T22:16:16.902Z,2.94
2023-03-01T22:18:43.514Z,2.95
2023-03-01T22:21:11.109Z,2.94
2023-03-01T22:23:39.757Z,2.92
2023-03-01T22:26:07.196Z,2.93
2023-03-01T22:28:34.373Z,2.91
2023-03-01T22:31:06.993Z,2.92
2023-03-01T22:33:33.487Z,2.87
2023-03-01T22:36:00.042Z,2.88
2023-03-01T22:38:26.680Z,2.88
2023-03-01T22:41:01.248Z,2.84
2023-03-01T22:43:29.302Z,2.83
2023-03-01T22:45:56.162Z,2.82
2023-03-01T22:48:23.724Z,2.79
2023-03-01T22:50:50.499Z,2.76
2023-03-01T22:53:18.194Z,2.77
2023-03-01T22:55:44.947Z,2.76
2023-03-01T22:58:11.442Z,2.77
2023-03-01T23:00:38.004Z,2.78
2023-03-01T23:03:04.821Z,2.78
2023-03-01T23:05:31.444Z,2.78
2023-03-01T23:07:57.909Z,2.79
2023-03-01T23:10:25.920Z,2.79
2023-03-01T23:12:55.283Z,2.78
2023-03-01T23:15:22.102Z,2.75
2023-03-01T23:17:48.641Z,2.73
2023-03-01T23:20:15.732Z,2.75
2023-03-01T23:22:42.444Z,2.74
2023-03-01T23:25:13.204Z,2.72
2023-03-01T23:27:39.809Z,2.72
2023-03-01T23:30:08.327Z,2.73
2023-03-01T23:32:40.594Z,2.76
2023-03-01T23:35:08.992Z,2.75
2023-03-01T23:37:35.518Z,2.78
2023-03-01T23:40:02.238Z,2.72
2023-03-01T23:42:28.742Z,2.75
2023-03-01T23:44:55.266Z,2.73
2023-03-01T23:47:21.965Z,2.70
2023-03-01T23:49:50.514Z,2.66
2023-03-01T23:52:17.383Z,2.63
2023-03-01T23:54:44.519Z,2.63
2023-03-01T23:57:11.029Z,2.62
2023-03-01T23:59:37.635Z,2.61
